Time;durP1;ratioP1;P1;durP2;ratioP2;P2;SDS_P1;SDS_P2;PMS_P1;PMS_P2;Temp;Humidity;BMP_temperature;BMP_pressure;BME280_temperature;BME280_humidity;BME280_pressure;Samples;Min_cycle;Max_cycle;Signal;HPM_P1;HPM_P2
2021/06/01 00:01:19;;;;;;;0.43;0.43;;;;;;;12.00;54.95;99216.25;5109704;28;42449;-81
2021/06/01 00:03:46;;;;;;;0.30;0.30;;;;;;;12.04;54.89;99231.88;5092507;28;39909;-80
2021/06/01 00:06:14;;;;;;;0.20;0.20;;;;;;;12.02;54.74;99227.63;5091985;28;41207;-80
2021/06/01 00:08:42;;;;;;;0.40;0.40;;;;;;;11.99;54.89;99228.66;5110157;28;42644;-80
2021/06/01 00:11:12;;;;;;;0.20;0.20;;;;;;;11.98;54.87;99234.09;5092415;28;41337;-80
2021/06/01 00:13:39;;;;;;;0.60;0.60;;;;;;;11.94;55.19;99229.91;5092214;28;39138;-83
2021/06/01 00:16:07;;;;;;;0.30;0.30;;;;;;;11.86;55.36;99217.97;5091667;28;41840;-80
2021/06/01 00:18:34;;;;;;;0.20;0.20;;;;;;;11.91;55.55;99232.75;5091744;28;42801;-83
2021/06/01 00:21:02;;;;;;;0.67;0.67;;;;;;;11.81;55.46;99220.06;5108685;28;42226;-83
2021/06/01 00:23:30;;;;;;;0.40;0.30;;;;;;;11.86;55.57;99233.91;5089407;28;38861;-82
2021/06/01 00:25:57;;;;;;;0.30;0.30;;;;;;;11.73;55.20;99217.00;5089538;28;41224;-81
2021/06/01 00:28:25;;;;;;;0.57;0.57;;;;;;;11.80;55.51;99234.28;5075158;28;41643;-81
2021/06/01 00:31:04;;;;;;;0.70;0.70;;;;;;;11.77;55.83;99234.44;5109050;28;42754;-80
2021/06/01 00:33:31;;;;;;;0.20;0.20;;;;;;;11.67;56.02;99216.50;5105761;27;40892;-82
2021/06/01 00:35:59;;;;;;;0.77;0.40;;;;;;;11.67;55.90;99222.66;5097767;28;42810;-82
2021/06/01 00:38:26;;;;;;;0.10;0.10;;;;;;;11.69;56.25;99226.09;5092574;28;42001;-82
2021/06/01 00:40:55;;;;;;;0.50;0.50;;;;;;;11.69;56.13;99235.84;5108240;28;42802;-82
2021/06/01 00:43:22;;;;;;;0.20;0.20;;;;;;;11.66;56.11;99236.03;5126349;27;39877;-83
2021/06/01 00:45:51;;;;;;;1.10;1.00;;;;;;;11.63;56.19;99237.06;5108832;28;42837;-82
2021/06/01 00:48:18;;;;;;;0.20;0.20;;;;;;;11.50;56.14;99214.88;5091813;28;43262;-81
2021/06/01 00:50:46;;;;;;;0.30;0.30;;;;;;;11.57;56.04;99242.75;5092931;28;41438;-80
2021/06/01 00:53:13;;;;;;;0.30;0.30;;;;;;;11.53;56.02;99241.22;5074768;28;38932;-83
2021/06/01 00:55:40;;;;;;;0.33;0.33;;;;;;;11.37;56.01;99221.88;5125498;27;42493;-81
2021/06/01 00:58:08;;;;;;;0.17;0.17;;;;;;;11.46;56.24;99239.88;5091529;28;42566;-81
2021/06/01 01:03:24;;;;;;;0.40;0.40;;;;;;;11.40;56.22;99237.59;5057080;28;38740;-84
2021/06/01 01:05:52;;;;;;;0.10;0.10;;;;;;;11.37;56.18;99230.69;5088815;28;40747;-82
2021/06/01 01:08:45;;;;;;;0.10;0.10;;;;;;;11.18;56.26;99211.50;5108226;28;43480;-85
2021/06/01 01:11:19;;;;;;;0.30;0.30;;;;;;;11.30;56.62;99231.97;5107058;28;42292;-82
2021/06/01 01:13:50;;;;;;;0.57;0.57;;;;;;;11.26;56.96;99230.44;5109130;28;39004;-82
2021/06/01 01:16:21;;;;;;;0.63;0.37;;;;;;;11.14;57.11;99210.81;5091814;28;40985;-83
2021/06/01 01:18:54;;;;;;;0.30;0.30;;;;;;;11.12;57.51;99203.94;5074868;28;42140;-83
2021/06/01 01:21:28;;;;;;;0.60;0.60;;;;;;;11.18;57.38;99234.50;5090944;28;42996;-81
2021/06/01 01:24:08;;;;;;;0.10;0.10;;;;;;;10.97;57.56;99203.03;5091855;28;40090;-83
2021/06/01 01:26:51;;;;;;;0.30;0.30;;;;;;;11.11;57.41;99229.59;5089914;28;41790;-82
2021/06/01 01:29:23;;;;;;;0.50;0.50;;;;;;;11.07;57.81;99230.69;5125067;27;42675;-82
2021/06/01 01:31:55;;;;;;;0.20;0.20;;;;;;;11.03;58.52;99221.22;5090095;28;42287;-82
2021/06/01 01:34:24;;;;;;;0.20;0.20;;;;;;;11.01;58.26;99227.53;5125396;27;41457;-83
2021/06/01 01:36:52;;;;;;;0.10;0.10;;;;;;;10.96;57.96;99225.16;5091420;28;40758;-83
2021/06/01 01:39:21;;;;;;;0.10;0.10;;;;;;;10.82;57.90;99205.72;5073977;28;42715;-81
2021/06/01 01:41:49;;;;;;;0.23;0.23;;;;;;;10.73;58.11;99196.50;5108552;28;41303;-85
2021/06/01 01:44:19;;;;;;;0.60;0.60;;;;;;;10.86;58.41;99223.16;5074951;28;39394;-83
2021/06/01 01:49:30;;;;;;;0.50;0.50;;;;;;;10.68;58.04;99214.44;5089278;28;41824;-84
2021/06/01 01:52:00;;;;;;;0.20;0.20;;;;;;;10.73;58.57;99223.00;5108290;28;42662;-83
2021/06/01 01:54:31;;;;;;;0.20;0.20;;;;;;;10.49;58.54;99182.03;5109901;28;40841;-80
2021/06/01 01:57:09;;;;;;;0.20;0.20;;;;;;;10.67;58.92;99223.34;5107938;28;40544;-82
2021/06/01 01:59:37;;;;;;;0.13;0.13;;;;;;;10.46;59.09;99192.78;5109790;28;42626;-82
2021/06/01 02:02:09;;;;;;;1.23;0.73;;;;;;;10.51;58.98;99202.16;5090534;28;41239;-80
2021/06/01 02:04:39;;;;;;;0.20;0.20;;;;;;;10.48;59.32;99201.50;5108841;28;39818;-82
2021/06/01 02:07:07;;;;;;;0.77;0.77;;;;;;;10.56;59.50;99225.75;5091739;28;40771;-83
2021/06/01 02:09:34;;;;;;;0.20;0.20;;;;;;;10.51;60.18;99214.56;5075696;28;42867;-83
2021/06/01 02:12:02;;;;;;;0.50;0.50;;;;;;;10.38;59.84;99201.16;5091506;28;41090;-82
2021/06/01 02:14:29;;;;;;;0.10;0.10;;;;;;;10.43;59.71;99221.13;5125304;27;40663;-82
2021/06/01 02:16:57;;;;;;;0.10;0.10;;;;;;;10.18;59.62;99191.66;5125455;27;41759;-79
2021/06/01 02:19:26;;;;;;;0.70;0.70;;;;;;;10.29;59.76;99207.81;5108112;28;41806;-81
2021/06/01 02:22:05;;;;;;;0.30;0.30;;;;;;;10.17;59.68;99192.56;5107309;27;42163;-81
2021/06/01 02:24:34;;;;;;;0.13;0.13;;;;;;;10.31;59.43;99220.97;5094840;28;38883;-80
2021/06/01 02:27:12;;;;;;;1.27;0.93;;;;;;;10.25;59.43;99227.47;5110351;28;41059;-80
2021/06/01 02:29:44;;;;;;;0.47;0.40;;;;;;;10.23;59.40;99229.34;5111757;28;42813;-80
2021/06/01 02:32:12;;;;;;;0.10;0.10;;;;;;;10.04;59.43;99202.13;5110820;28;41967;-83
2021/06/01 02:34:42;;;;;;;0.20;0.20;;;;;;;10.18;59.84;99236.66;5091183;28;39310;-83
2021/06/01 02:37:10;;;;;;;1.13;1.13;;;;;;;10.17;60.54;99229.63;5108789;28;41571;-81
2021/06/01 02:39:39;;;;;;;0.43;0.30;;;;;;;10.15;60.98;99228.84;5111595;28;43236;-83
2021/06/01 02:42:07;;;;;;;0.37;0.37;;;;;;;10.11;60.70;99224.69;5093360;28;42923;-82
2021/06/01 02:44:35;;;;;;;0.20;0.20;;;;;;;10.08;60.47;99222.19;5094805;28;39435;-82
2021/06/01 02:47:05;;;;;;;0.20;0.20;;;;;;;10.09;61.21;99218.63;5094123;28;41232;-84
2021/06/01 02:49:34;;;;;;;1.13;0.50;;;;;;;10.06;61.17;99214.34;5112380;28;42160;-82
2021/06/01 02:52:02;;;;;;;0.20;0.20;;;;;;;10.03;61.04;99217.16;5093906;28;42178;-80
2021/06/01 02:54:32;;;;;;;0.30;0.30;;;;;;;9.86;60.90;99192.56;5111552;28;39820;-80
2021/06/01 02:57:00;;;;;;;0.10;0.10;;;;;;;9.88;60.82;99212.72;5093499;28;41366;-84
2021/06/01 02:59:28;;;;;;;0.40;0.40;;;;;;;9.97;60.66;99214.00;5109483;28;43484;-80
2021/06/01 03:01:55;;;;;;;0.30;0.30;;;;;;;9.87;60.79;99210.16;5094806;28;41564;-81
2021/06/01 03:04:23;;;;;;;0.10;0.10;;;;;;;9.90;60.64;99217.91;5093673;28;40897;-82
2021/06/01 03:06:50;;;;;;;0.10;0.10;;;;;;;9.87;60.66;99226.88;5094780;28;41546;-83
2021/06/01 03:09:17;;;;;;;0.20;0.20;;;;;;;9.83;60.71;99225.31;5093128;28;43074;-81
2021/06/01 03:11:47;;;;;;;0.17;0.17;;;;;;;9.71;60.86;99216.25;5093553;28;42454;-83
2021/06/01 03:14:15;;;;;;;0.33;0.33;;;;;;;9.78;61.05;99222.06;5110229;28;39494;-84
2021/06/01 03:16:42;;;;;;;0.40;0.40;;;;;;;9.70;61.06;99217.19;5093346;28;41383;-82
2021/06/01 03:19:09;;;;;;;0.33;0.33;;;;;;;9.76;61.07;99223.09;5109938;28;43249;-83
2021/06/01 03:21:37;;;;;;;0.20;0.20;;;;;;;9.74;60.99;99220.53;5110468;28;41186;-84
2021/06/01 03:24:05;;;;;;;0.53;0.53;;;;;;;9.70;61.40;99225.13;5092596;28;39908;-83
2021/06/01 03:26:33;;;;;;;0.20;0.20;;;;;;;9.67;61.36;99214.69;5106865;28;41642;-81
2021/06/01 03:29:01;;;;;;;0.93;0.90;;;;;;;9.72;61.97;99217.97;5089792;28;42922;-79
2021/06/01 03:31:31;;;;;;;0.20;0.20;;;;;;;9.69;61.94;99211.97;5093627;28;41944;-82
2021/06/01 03:33:58;;;;;;;0.60;0.60;;;;;;;9.72;62.72;99212.66;5092605;28;39063;-81
2021/06/01 03:36:25;;;;;;;0.30;0.30;;;;;;;9.72;63.01;99217.97;5094096;28;41650;-82
2021/06/01 03:38:52;;;;;;;0.20;0.20;;;;;;;9.62;62.26;99208.81;5093468;28;41524;-81
2021/06/01 03:41:20;;;;;;;0.57;0.57;;;;;;;9.76;62.06;99228.38;5092602;28;42398;-81
2021/06/01 03:43:47;;;;;;;0.10;0.10;;;;;;;9.78;62.07;99239.72;5111431;28;39970;-83
2021/06/01 03:46:15;;;;;;;0.70;0.70;;;;;;;9.78;62.10;99232.63;5091912;28;42463;-79
2021/06/01 03:48:43;;;;;;;0.30;0.30;;;;;;;9.79;62.28;99233.50;5093108;28;43219;-79
2021/06/01 03:51:10;;;;;;;0.10;0.10;;;;;;;9.81;62.48;99226.34;5092554;28;42177;-83
2021/06/01 03:53:37;;;;;;;0.63;0.50;;;;;;;9.83;62.46;99220.03;5110068;28;41592;-84
2021/06/01 03:56:04;;;;;;;0.20;0.20;;;;;;;9.77;62.44;99203.66;5110120;28;41736;-83
2021/06/01 03:58:32;;;;;;;0.20;0.20;;;;;;;9.97;62.28;99235.16;5076888;28;42676;-80
2021/06/01 04:00:59;;;;;;;0.27;0.27;;;;;;;10.01;62.13;99226.13;5092345;28;42182;-84
2021/06/01 04:03:27;;;;;;;0.30;0.30;;;;;;;10.06;61.95;99224.94;5110706;28;40675;-85
2021/06/01 04:05:54;;;;;;;0.20;0.20;;;;;;;10.11;62.44;99222.03;5089562;28;41142;-83
2021/06/01 04:08:22;;;;;;;0.13;0.13;;;;;;;10.15;61.99;99225.34;5092769;28;42118;-81
2021/06/01 04:10:48;;;;;;;0.20;0.20;;;;;;;10.13;61.69;99214.88;5093321;28;40970;-84
2021/06/01 04:13:16;;;;;;;0.30;0.30;;;;;;;10.30;61.90;99230.69;5109545;28;39940;-81
2021/06/01 04:15:43;;;;;;;0.67;0.67;;;;;;;10.36;61.82;99219.78;5076389;28;40768;-83
2021/06/01 04:18:10;;;;;;;0.10;0.10;;;;;;;10.44;62.12;99227.28;5126138;27;42530;-82
2021/06/01 04:20:39;;;;;;;1.90;1.80;;;;;;;10.32;62.75;99186.47;5076055;28;42050;-81
2021/06/01 04:23:06;;;;;;;0.20;0.20;;;;;;;10.61;63.25;99218.41;5109212;28;39880;-80
2021/06/01 04:25:33;;;;;;;0.23;0.23;;;;;;;10.71;63.71;99220.44;5105929;28;42560;-83
2021/06/01 04:28:00;;;;;;;0.43;0.43;;;;;;;10.82;63.35;99216.31;5092320;28;42740;-81
2021/06/01 04:30:28;;;;;;;0.20;0.20;;;;;;;10.93;62.84;99222.69;5093020;28;41756;-80
2021/06/01 04:32:56;;;;;;;0.30;0.30;;;;;;;11.02;62.26;99224.78;5125740;27;39900;-84
2021/06/01 04:35:23;;;;;;;0.37;0.37;;;;;;;11.02;62.05;99213.34;5076169;28;41639;-81
2021/06/01 04:37:52;;;;;;;0.50;0.50;;;;;;;11.19;61.62;99230.91;5105395;28;42631;-79
2021/06/01 04:40:19;;;;;;;0.30;0.30;;;;;;;11.19;61.52;99221.16;5079974;28;42361;-82
2021/06/01 04:42:47;;;;;;;0.40;0.40;;;;;;;11.34;61.36;99238.81;5104341;28;40570;-81
2021/06/01 04:45:16;;;;;;;0.20;0.20;;;;;;;11.42;61.06;99236.56;5090901;28;40414;-79
2021/06/01 04:47:43;;;;;;;0.33;0.33;;;;;;;11.49;61.17;99237.06;5110283;28;43225;-81
2021/06/01 04:50:11;;;;;;;0.30;0.30;;;;;;;11.45;61.60;99212.50;5125378;27;42308;-84
2021/06/01 04:52:39;;;;;;;0.60;0.60;;;;;;;11.65;62.12;99219.25;5089198;28;39960;-81
2021/06/01 04:55:10;;;;;;;0.10;0.10;;;;;;;11.77;61.48;99222.97;5070628;27;41785;-82
2021/06/01 04:57:37;;;;;;;0.60;0.60;;;;;;;11.86;61.24;99223.28;5100820;28;42570;-83
2021/06/01 05:00:06;;;;;;;0.80;0.73;;;;;;;11.98;60.79;99231.44;5089082;28;41624;-81
2021/06/01 05:02:34;;;;;;;0.20;0.20;;;;;;;12.00;60.75;99213.59;5091492;28;39803;-83
2021/06/01 05:05:01;;;;;;;0.67;0.43;;;;;;;12.14;60.49;99221.53;5125197;27;42515;-81
2021/06/01 05:07:29;;;;;;;0.47;0.47;;;;;;;12.30;60.04;99227.59;5104813;28;42674;-82
2021/06/01 05:10:00;;;;;;;0.13;0.13;;;;;;;12.35;59.82;99225.50;5101287;28;42232;-81
2021/06/01 05:12:29;;;;;;;0.27;0.27;;;;;;;12.41;59.92;99209.16;5101226;28;39647;-83
2021/06/01 05:14:57;;;;;;;0.23;0.23;;;;;;;12.51;59.77;99215.59;5092183;28;41928;-80
2021/06/01 05:17:26;;;;;;;0.10;0.10;;;;;;;12.57;59.92;99201.94;5074245;28;42010;-80
2021/06/01 05:19:53;;;;;;;0.73;0.73;;;;;;;12.83;59.86;99221.47;5124960;27;42220;-84
2021/06/01 05:22:20;;;;;;;1.10;1.10;;;;;;;12.95;59.72;99223.31;5109481;28;41406;-82
2021/06/01 05:24:47;;;;;;;0.40;0.40;;;;;;;13.06;59.37;99230.59;5091415;28;40499;-84
2021/06/01 05:27:14;;;;;;;0.30;0.30;;;;;;;13.14;59.45;99220.31;5108027;28;42659;-79
2021/06/01 05:29:49;;;;;;;0.23;0.23;;;;;;;13.31;58.97;99227.16;5091761;28;41335;-82
2021/06/01 05:33:04;;;;;;;1.70;0.73;;;;;;;13.40;58.75;99215.03;5124467;27;40740;-80
2021/06/01 05:35:31;;;;;;;0.60;0.60;;;;;;;13.58;58.43;99229.75;5109569;28;40867;-84
2021/06/01 05:38:02;;;;;;;0.20;0.20;;;;;;;13.70;58.73;99230.72;5107954;28;41662;-79
2021/06/01 05:40:29;;;;;;;0.20;0.20;;;;;;;13.81;58.21;99229.00;5091451;28;40753;-80
2021/06/01 05:42:56;;;;;;;0.47;0.47;;;;;;;13.93;58.41;99225.47;5124145;27;40077;-81
2021/06/01 05:45:25;;;;;;;0.10;0.10;;;;;;;14.06;58.42;99232.59;5109067;28;42275;-83
2021/06/01 05:47:52;;;;;;;0.30;0.30;;;;;;;14.17;57.92;99228.22;5091428;28;42774;-79
2021/06/01 05:50:20;;;;;;;0.20;0.20;;;;;;;14.31;57.87;99225.44;5109122;28;41317;-82
2021/06/01 05:52:48;;;;;;;0.27;0.27;;;;;;;14.45;57.65;99226.28;5091068;28;39824;-82
2021/06/01 05:55:15;;;;;;;0.80;0.80;;;;;;;14.56;57.01;99224.53;5107187;28;41752;-85
2021/06/01 05:57:42;;;;;;;0.30;0.23;;;;;;;14.83;56.57;99236.81;5091140;28;41791;-83
2021/06/01 06:00:10;;;;;;;1.27;0.93;;;;;;;14.91;56.61;99216.59;5091795;28;41309;-83
2021/06/01 06:02:39;;;;;;;0.30;0.30;;;;;;;14.84;56.22;99179.81;5103178;28;39655;-82
2021/06/01 06:05:07;;;;;;;0.70;0.63;;;;;;;15.26;55.67;99240.63;5083955;28;40987;-84
2021/06/01 06:07:34;;;;;;;0.30;0.30;;;;;;;15.36;55.38;99235.44;5076295;28;41658;-80
2021/06/01 06:10:02;;;;;;;0.73;0.43;;;;;;;15.46;55.51;99236.44;5079407;28;42438;-80
2021/06/01 06:12:30;;;;;;;0.40;0.40;;;;;;;15.57;55.48;99241.00;5121476;27;40403;-82
2021/06/01 06:14:57;;;;;;;0.37;0.37;;;;;;;15.68;55.17;99231.19;5107235;28;40699;-78
2021/06/01 06:17:29;;;;;;;0.77;0.77;;;;;;;15.89;55.19;99231.34;5089546;27;41869;-80
2021/06/01 06:20:00;;;;;;;0.67;0.67;;;;;;;16.18;54.27;99218.34;5082961;28;41925;-80
2021/06/01 06:22:29;;;;;;;0.50;0.50;;;;;;;16.59;53.36;99241.75;5103246;27;40879;-80
2021/06/01 06:24:56;;;;;;;0.27;0.27;;;;;;;16.76;52.81;99251.97;5093724;28;40708;-81
2021/06/01 06:27:23;;;;;;;1.33;0.80;;;;;;;16.97;52.55;99237.78;5087058;28;42291;-80
2021/06/01 06:29:51;;;;;;;0.40;0.40;;;;;;;17.15;52.07;99237.13;5100583;28;42567;-82
2021/06/01 06:32:18;;;;;;;0.50;0.50;;;;;;;17.25;52.36;99237.19;5075692;28;39135;-82
2021/06/01 06:34:45;;;;;;;0.80;0.80;;;;;;;17.30;50.58;99243.03;5113578;27;40750;-82
2021/06/01 06:37:14;;;;;;;0.20;0.20;;;;;;;17.51;50.17;99253.75;5093261;27;41909;-80
2021/06/01 06:39:41;;;;;;;0.30;0.30;;;;;;;17.75;50.05;99254.38;5110607;27;42772;-80
2021/06/01 06:42:09;;;;;;;0.20;0.20;;;;;;;17.83;49.65;99238.47;5106522;28;38945;-91
2021/06/01 06:44:40;;;;;;;0.43;0.43;;;;;;;18.05;49.44;99261.56;5073846;28;42301;-86
2021/06/01 06:47:22;;;;;;;0.30;0.30;;;;;;;18.03;49.04;99238.59;5089122;28;42595;-82
2021/06/01 06:49:49;;;;;;;1.47;1.43;;;;;;;18.29;48.78;99255.94;5107182;28;42496;-81
2021/06/01 06:52:18;;;;;;;1.00;0.73;;;;;;;18.39;48.37;99253.28;5107817;28;40334;-84
2021/06/01 06:54:45;;;;;;;3.77;1.37;;;;;;;18.60;48.74;99262.13;5091182;28;40721;-83
2021/06/01 06:57:13;;;;;;;2.33;2.23;;;;;;;18.81;47.52;99270.94;5085523;28;41686;-81
2021/06/01 06:59:40;;;;;;;2.67;1.17;;;;;;;19.06;47.35;99260.66;5077583;28;42915;-79
2021/06/01 07:02:07;;;;;;;0.53;0.53;;;;;;;19.36;46.51;99269.47;5122123;27;39825;-77
2021/06/01 07:04:35;;;;;;;0.60;0.60;;;;;;;19.76;45.78;99270.31;5069670;28;40611;-84
2021/06/01 07:07:02;;;;;;;0.60;0.60;;;;;;;19.96;44.67;99261.22;5084434;28;42970;-81
2021/06/01 07:09:31;;;;;;;0.73;0.73;;;;;;;20.23;44.72;99277.41;5105605;27;42807;-80
2021/06/01 07:11:58;;;;;;;0.67;0.67;;;;;;;20.24;44.88;99260.28;5069695;28;39780;-85
2021/06/01 07:14:32;;;;;;;0.50;0.50;;;;;;;20.36;43.89;99259.13;5103818;28;42045;-83
2021/06/01 07:16:59;;;;;;;2.13;0.70;;;;;;;20.43;43.55;99262.91;5083042;28;42022;-84
2021/06/01 07:19:26;;;;;;;0.93;0.93;;;;;;;20.56;43.79;99265.25;5116160;27;41923;-88
2021/06/01 07:21:53;;;;;;;0.90;0.83;;;;;;;20.85;42.58;99281.28;5101295;28;39911;-81
2021/06/01 07:24:21;;;;;;;0.30;0.30;;;;;;;21.25;42.15;99277.38;5091105;28;42492;-81
2021/06/01 07:26:49;;;;;;;0.83;0.83;;;;;;;22.05;41.67;99276.34;5106957;28;42699;-82
2021/06/01 07:29:17;;;;;;;0.30;0.30;;;;;;;23.43;39.15;99260.72;5103545;27;42117;-81
2021/06/01 07:31:44;;;;;;;0.50;0.50;;;;;;;25.03;35.50;99308.50;5097484;28;39542;-83
2021/06/01 07:34:12;;;;;;;0.30;0.30;;;;;;;26.22;32.60;99321.56;5069123;28;40868;-82
2021/06/01 07:36:39;;;;;;;1.20;1.20;;;;;;;26.92;31.51;99313.88;5117251;27;42281;-82
2021/06/01 07:39:07;;;;;;;0.30;0.30;;;;;;;27.26;30.55;99321.41;5109661;28;41073;-83
2021/06/01 07:41:34;;;;;;;0.60;0.60;;;;;;;27.29;29.40;99326.47;5076080;28;40101;-82
2021/06/01 07:44:05;;;;;;;0.50;0.50;;;;;;;26.94;29.20;99327.31;5109153;28;41672;-86
2021/06/01 07:46:32;;;;;;;0.33;0.33;;;;;;;27.38;29.69;99324.47;5092001;28;42733;-81
2021/06/01 07:49:00;;;;;;;0.40;0.40;;;;;;;28.30;28.02;99340.94;5124877;27;42014;-81
2021/06/01 07:51:31;;;;;;;0.67;0.30;;;;;;;29.75;25.99;99341.69;5106149;28;39936;-83
2021/06/01 07:54:02;;;;;;;0.30;0.30;;;;;;;31.21;24.71;99337.81;5105992;28;40952;-90
2021/06/01 07:56:37;;;;;;;0.23;0.23;;;;;;;32.28;23.64;99312.28;5110244;27;41879;-86
2021/06/01 07:59:05;;;;;;;0.50;0.50;;;;;;;33.09;23.22;99342.28;5103699;28;42297;-88
2021/06/01 08:04:27;;;;;;;0.60;0.40;;;;;;;33.10;22.84;99317.34;5085997;27;41403;-86
2021/06/01 08:06:59;;;;;;;0.30;0.30;;;;;;;32.48;23.47;99308.31;5113610;27;44846;-79
2021/06/01 08:09:26;;;;;;;0.40;0.40;;;;;;;32.56;23.70;99311.81;5122801;28;42249;-79
2021/06/01 08:11:53;;;;;;;0.30;0.30;;;;;;;33.34;22.90;99323.00;5114199;28;40496;-88
2021/06/01 08:14:22;;;;;;;0.40;0.40;;;;;;;34.25;22.21;99325.41;5098748;28;41750;-89
2021/06/01 08:16:50;;;;;;;0.40;0.40;;;;;;;35.37;20.49;99333.50;5113586;28;42968;-82
2021/06/01 08:19:20;;;;;;;0.43;0.40;;;;;;;36.17;18.88;99339.72;5113265;28;42290;-85
2021/06/01 08:21:54;;;;;;;0.60;0.43;;;;;;;36.42;19.11;99344.00;5112763;28;39031;-78
2021/06/01 08:24:21;;;;;;;0.40;0.40;;;;;;;36.12;18.69;99341.53;5093762;28;40595;-83
2021/06/01 08:26:49;;;;;;;0.43;0.43;;;;;;;35.89;19.12;99331.50;5115307;28;42798;-83
2021/06/01 08:29:17;;;;;;;0.40;0.40;;;;;;;35.47;19.63;99328.22;5078572;28;41130;-83
2021/06/01 08:31:46;;;;;;;0.53;0.53;;;;;;;34.98;19.63;99311.22;5093830;28;39280;-80
2021/06/01 08:34:13;;;;;;;0.60;0.60;;;;;;;35.08;19.53;99319.69;5083071;28;41850;-83
2021/06/01 08:36:41;;;;;;;0.63;0.47;;;;;;;34.88;19.05;99333.00;5110347;28;43264;-85
2021/06/01 08:39:09;;;;;;;1.80;0.83;;;;;;;34.68;19.63;99318.75;5106356;28;41471;-80
2021/06/01 08:41:38;;;;;;;0.40;0.40;;;;;;;35.13;20.46;99303.25;5109191;28;39671;-80
2021/06/01 08:44:06;;;;;;;2.47;0.70;;;;;;;36.06;18.99;99310.28;5107754;27;42314;-80
2021/06/01 08:46:34;;;;;;;0.40;0.40;;;;;;;37.54;17.75;99316.00;5093214;28;41944;-88
2021/06/01 08:49:03;;;;;;;1.02;1.02;;;;;;;39.15;16.21;99332.28;5074615;28;41720;-86
2021/06/01 08:51:31;;;;;;;0.52;0.50;;;;;;;40.35;15.03;99332.03;5102800;28;41733;-84
2021/06/01 08:53:59;;;;;;;0.45;0.45;;;;;;;40.95;13.75;99324.69;5090987;28;42463;-85
2021/06/01 08:56:27;;;;;;;0.30;0.30;;;;;;;40.76;14.32;99342.00;5092806;28;41404;-85
2021/06/01 08:58:56;;;;;;;0.60;0.60;;;;;;;40.68;14.25;99336.16;5075443;28;20236;-80
2021/06/01 09:01:23;;;;;;;0.65;0.65;;;;;;;40.44;13.68;99333.13;5108381;28;40555;-83
2021/06/01 09:03:52;;;;;;;0.73;0.73;;;;;;;40.70;14.74;99331.97;5075087;28;43144;-85
2021/06/01 09:06:37;;;;;;;0.57;0.57;;;;;;;40.64;14.33;99329.50;5168775;27;20551;-89
2021/06/01 09:09:20;;;;;;;0.77;0.77;;;;;;;39.78;15.03;99320.03;5149276;27;39199;-85
2021/06/01 09:11:55;;;;;;;0.60;0.60;;;;;;;39.37;15.71;99307.97;5112972;27;40597;-81
2021/06/01 09:22:52;;;;;;;0.47;0.47;;;;;;;40.95;13.26;99316.38;5132200;27;41648;-83
2021/06/01 09:25:23;;;;;;;0.70;0.70;;;;;;;41.19;12.94;99318.25;5166952;27;42543;-84
2021/06/01 09:27:52;;;;;;;0.93;0.93;;;;;;;41.71;13.24;99307.69;5161207;27;42018;-80
2021/06/01 09:30:35;;;;;;;0.65;0.65;;;;;;;42.82;12.82;99301.16;5166939;27;39386;-80
2021/06/01 09:33:03;;;;;;;0.60;0.60;;;;;;;43.77;13.01;99282.66;5150174;27;41217;-83
2021/06/01 09:35:51;;;;;;;0.70;0.70;;;;;;;44.29;11.13;99285.09;5148657;27;42662;-83
2021/06/01 09:38:22;;;;;;;0.70;0.70;;;;;;;44.66;12.12;99288.91;5132021;27;40822;-85
2021/06/01 09:41:05;;;;;;;0.57;0.57;;;;;;;44.33;11.69;99286.16;5132492;27;39720;-84
2021/06/01 09:43:34;;;;;;;0.57;0.57;;;;;;;42.53;12.41;99292.03;5149424;27;41085;-80
2021/06/01 09:46:19;;;;;;;0.50;0.50;;;;;;;41.88;12.46;99278.34;5131941;27;41842;-83
2021/06/01 09:48:46;;;;;;;0.63;0.63;;;;;;;41.68;12.90;99258.19;5149506;27;42278;-85
2021/06/01 09:51:24;;;;;;;0.60;0.60;;;;;;;42.15;12.94;99263.13;5132039;27;39272;-82
2021/06/01 09:53:54;;;;;;;0.60;0.60;;;;;;;42.84;12.77;99257.13;5148088;27;41852;-83
2021/06/01 09:56:22;;;;;;;0.50;0.50;;;;;;;43.10;12.20;99262.38;5134651;27;42826;-82
2021/06/01 09:58:50;;;;;;;0.70;0.70;;;;;;;43.16;11.80;99266.72;5165419;27;41981;-80
2021/06/01 10:01:18;;;;;;;0.80;0.80;;;;;;;42.47;12.51;99262.53;5166062;27;38821;-82
2021/06/01 10:03:47;;;;;;;0.50;0.50;;;;;;;41.50;13.15;99234.66;5165868;27;42543;-85
2021/06/01 10:06:16;;;;;;;0.60;0.60;;;;;;;40.32;13.66;99246.50;5152021;27;43336;-82
2021/06/01 10:08:46;;;;;;;0.83;0.83;;;;;;;38.61;14.25;99235.63;5148273;27;42231;-82
2021/06/01 10:11:15;;;;;;;0.60;0.60;;;;;;;37.04;15.80;99217.63;5166726;27;40179;-80
2021/06/01 10:13:48;;;;;;;0.80;0.80;;;;;;;36.06;16.75;99199.16;5148173;27;40785;-81
2021/06/01 10:16:17;;;;;;;0.90;0.73;;;;;;;35.82;16.64;99221.41;5144767;27;43395;-82
2021/06/01 10:18:45;;;;;;;1.53;0.60;;;;;;;35.83;16.16;99217.56;5133637;27;43200;-85
2021/06/01 10:21:13;;;;;;;0.57;0.57;;;;;;;35.73;17.39;99203.59;5142951;27;39900;-85
2021/06/01 10:23:43;;;;;;;1.37;1.23;;;;;;;35.39;16.30;99201.88;5134580;27;40788;-81
2021/06/01 10:26:16;;;;;;;1.20;0.90;;;;;;;35.04;17.63;99191.84;5135106;27;44323;-84
2021/06/01 10:28:46;;;;;;;0.40;0.40;;;;;;;34.65;17.35;99203.66;5118335;27;41225;-83
2021/06/01 10:31:17;;;;;;;0.40;0.40;;;;;;;34.00;19.12;99179.94;5133928;27;39773;-82
2021/06/01 10:33:55;;;;;;;0.60;0.60;;;;;;;33.68;17.97;99187.66;5135521;27;41749;-84
2021/06/01 10:42:29;;;;;;;0.67;0.67;;;;;;;33.56;18.02;99184.06;5117880;27;41472;-85
2021/06/01 10:42:40;;;;;;;0.60;0.60;;;;;;;33.37;18.56;99179.75;5134140;27;39751;-83
2021/06/01 10:51:01;;;;;;;0.97;0.67;;;;;;;32.58;18.72;99165.16;5135503;27;41235;-87
2021/06/01 10:53:40;;;;;;;0.37;0.37;;;;;;;32.51;19.32;99169.91;5134896;27;39151;-85
2021/06/01 10:56:13;;;;;;;0.50;0.50;;;;;;;32.13;19.04;99149.03;5134331;27;41170;-83
2021/06/01 10:59:16;;;;;;;0.30;0.30;;;;;;;31.84;19.74;99151.63;5116615;27;41556;-81
2021/06/01 11:01:50;;;;;;;0.47;0.47;;;;;;;31.69;22.49;99139.13;5144567;27;42954;-82
2021/06/01 11:04:22;;;;;;;1.00;0.90;;;;;;;31.59;23.02;99122.34;5133796;27;39476;-85
2021/06/01 11:09:56;;;;;;;0.90;0.73;;;;;;;31.51;22.58;99113.59;5134711;27;42568;-80
2021/06/01 11:12:41;;;;;;;0.70;0.70;;;;;;;31.43;23.83;99087.31;5132626;27;42643;-81
2021/06/01 11:15:36;;;;;;;0.40;0.40;;;;;;;31.42;20.33;99123.97;5115805;27;38766;-79
2021/06/01 11:18:32;;;;;;;1.43;0.93;;;;;;;31.24;19.54;99134.88;5129968;27;40977;-82
2021/06/01 11:21:12;;;;;;;0.30;0.30;;;;;;;30.99;21.48;99108.28;5096698;27;42233;-86
2021/06/01 11:24:17;;;;;;;0.40;0.40;;;;;;;30.93;21.78;99103.69;5099211;27;43223;-84
2021/06/01 11:33:10;;;;;;;0.40;0.40;;;;;;;30.87;21.82;99090.91;5112686;27;42581;-87
2021/06/01 11:35:41;;;;;;;0.30;0.30;;;;;;;31.14;23.28;99077.91;5114070;27;41526;-82
2021/06/01 11:38:14;;;;;;;0.60;0.60;;;;;;;31.38;19.73;99114.53;5112583;27;40321;-80
2021/06/01 11:41:19;;;;;;;1.07;1.00;;;;;;;31.54;19.18;99124.91;5112051;27;40925;-80
2021/06/01 11:43:46;;;;;;;0.30;0.30;;;;;;;31.71;19.99;99115.09;5127786;27;43289;-78
2021/06/01 11:46:25;;;;;;;0.30;0.30;;;;;;;32.11;20.85;99099.06;5134954;27;42894;-80
2021/06/01 11:51:42;;;;;;;0.40;0.40;;;;;;;34.94;17.54;99098.06;5133804;27;41522;-84
2021/06/01 11:54:13;;;;;;;1.20;1.10;;;;;;;35.37;17.50;99082.84;5143929;27;42761;-81
2021/06/01 11:56:49;;;;;;;0.40;0.40;;;;;;;35.44;16.26;99113.81;5147101;27;41685;-82
2021/06/01 12:02:08;;;;;;;0.60;0.60;;;;;;;36.20;16.94;99087.41;5111370;27;41435;-80
2021/06/01 12:13:32;;;;;;;0.30;0.30;;;;;;;38.76;15.30;99102.78;5132120;27;41566;-83
2021/06/01 12:18:47;;;;;;;2.17;1.57;;;;;;;40.72;13.12;99123.41;5149686;27;42997;-78
2021/06/01 12:21:18;;;;;;;0.70;0.70;;;;;;;40.67;12.41;99115.91;5132944;27;39208;-82
2021/06/01 12:23:50;;;;;;;0.57;0.50;;;;;;;41.51;12.10;99114.78;5148542;27;41522;-84
2021/06/01 12:26:22;;;;;;;0.57;0.57;;;;;;;42.09;12.97;99091.72;5129958;27;42457;-81
2021/06/01 12:32:03;;;;;;;0.40;0.40;;;;;;;43.42;12.56;99095.13;5115784;27;39456;-85
2021/06/01 12:34:45;;;;;;;0.40;0.40;;;;;;;43.91;11.96;99093.69;5116006;27;42165;-86
2021/06/01 12:43:01;;;;;;;0.60;0.60;;;;;;;43.59;12.11;99103.78;5133142;27;39193;-80
2021/06/01 13:19:42;;;;;;;0.70;0.70;;;;;;;42.29;13.14;99042.16;5115186;27;41695;-90
2021/06/01 13:22:40;;;;;;;0.70;0.70;;;;;;;42.60;13.38;99028.69;5114653;27;43274;-85
2021/06/01 13:31:11;;;;;;;0.63;0.40;;;;;;;42.18;12.65;99009.19;5148486;27;41957;-80